createdAt,value
2023-03-08T00:00:46.353Z,94893.84
2023-03-08T00:03:15.450Z,94899.47
2023-03-08T00:05:43.942Z,94901.56
2023-03-08T00:08:11.858Z,94900.59
2023-03-08T00:10:41.110Z,94904.50
2023-03-08T00:13:08.935Z,94899.38
2023-03-08T00:15:37.751Z,94892.78
2023-03-08T00:18:05.717Z,94890.56
2023-03-08T00:20:34.324Z,94888.81
2023-03-08T00:23:02.102Z,94882.69
2023-03-08T00:25:29.955Z,94877.94
2023-03-08T00:27:59.118Z,94879.13
2023-03-08T00:30:26.878Z,94886.03
2023-03-08T00:32:56.210Z,94893.56
2023-03-08T00:35:23.965Z,94895.25
2023-03-08T00:37:51.716Z,94908.81
2023-03-08T00:40:19.613Z,94901.59
2023-03-08T00:42:47.360Z,94897.72
2023-03-08T00:45:16.693Z,94911.66
2023-03-08T00:47:44.401Z,94915.22
2023-03-08T00:50:12.610Z,94921.28
2023-03-08T00:52:40.453Z,94925.03
2023-03-08T00:55:08.749Z,94913.56
2023-03-08T00:57:37.094Z,94910.88
2023-03-08T01:00:08.281Z,94911.88
2023-03-08T01:02:37.650Z,94916.84
2023-03-08T01:05:06.016Z,94917.31
2023-03-08T01:07:34.194Z,94911.97
2023-03-08T01:10:03.973Z,94912.50
2023-03-08T01:12:33.384Z,94909.72
2023-03-08T01:15:01.210Z,94907.25
2023-03-08T01:17:28.974Z,94910.41
2023-03-08T01:19:58.773Z,94911.50
2023-03-08T01:22:26.554Z,94896.75
2023-03-08T01:24:55.646Z,94902.09
2023-03-08T01:27:23.479Z,94897.75
2023-03-08T01:29:51.418Z,94886.41
2023-03-08T01:32:19.360Z,94883.53
2023-03-08T01:34:47.270Z,94885.97
2023-03-08T01:37:16.508Z,94879.75
2023-03-08T01:39:44.564Z,94874.16
2023-03-08T01:42:12.489Z,94869.69
2023-03-08T01:44:55.570Z,94863.56
2023-03-08T01:47:24.946Z,94866.03
2023-03-08T01:50:14.547Z,94865.47
2023-03-08T01:52:47.713Z,94855.38
2023-03-08T01:55:18.098Z,94842.63
2023-03-08T01:57:50.427Z,94845.69
2023-03-08T02:00:22.739Z,94848.47
2023-03-08T02:02:55.496Z,94845.09
2023-03-08T02:05:24.271Z,94846.56
2023-03-08T02:07:58.214Z,94849.91
2023-03-08T02:10:29.619Z,94844.69
2023-03-08T02:12:57.502Z,94837.56
2023-03-08T02:15:25.788Z,94833.91
2023-03-08T02:17:56.929Z,94838.44
2023-03-08T02:20:29.246Z,94831.34
2023-03-08T02:23:10.010Z,94830.34
2023-03-08T02:25:38.227Z,94835.19
2023-03-08T02:28:07.240Z,94835.19
2023-03-08T02:30:37.241Z,94824.91
2023-03-08T02:33:05.273Z,94826.88
2023-03-08T02:35:33.440Z,94818.38
2023-03-08T02:38:04.953Z,94807.31
2023-03-08T02:40:32.808Z,94816.78
2023-03-08T02:43:00.601Z,94807.28
2023-03-08T02:45:28.462Z,94809.94
2023-03-08T02:47:56.208Z,94803.53
2023-03-08T02:50:25.148Z,94799.38
2023-03-08T02:52:52.896Z,94807.38
2023-03-08T02:55:22.111Z,94797.09
2023-03-08T02:57:50.063Z,94792.94
2023-03-08T03:00:19.993Z,94798.06
2023-03-08T03:02:47.786Z,94803.16
2023-03-08T03:05:16.284Z,94802.97
2023-03-08T03:07:44.586Z,94802.97
2023-03-08T03:10:19.815Z,94792.59
2023-03-08T03:12:49.063Z,94799.59
2023-03-08T03:15:20.163Z,94798.81
2023-03-08T03:17:52.137Z,94786.97
2023-03-08T03:20:20.629Z,94787.28
2023-03-08T03:22:48.378Z,94784.63
2023-03-08T03:25:17.377Z,94780.88
2023-03-08T03:27:48.943Z,94780.09
2023-03-08T03:30:17.646Z,94782.19
2023-03-08T03:32:45.831Z,94774.69
2023-03-08T03:35:15.608Z,94774.19
2023-03-08T03:37:46.980Z,94771.72
2023-03-08T03:40:15.578Z,94774.59
2023-03-08T03:42:46.882Z,94774.59
2023-03-08T03:45:16.847Z,94775.69
2023-03-08T03:47:44.648Z,94774.69
2023-03-08T03:50:12.957Z,94773.31
2023-03-08T03:52:49.041Z,94772.00
2023-03-08T03:55:17.302Z,94765.31
2023-03-08T03:57:46.063Z,94760.00
2023-03-08T04:00:20.261Z,94764.72
2023-03-08T04:02:56.084Z,94759.09
2023-03-08T04:05:23.837Z,94756.16
2023-03-08T04:07:54.100Z,94737.13
2023-03-08T04:10:24.952Z,94737.13
2023-03-08T04:12:54.644Z,94726.47
2023-03-08T04:15:24.902Z,94730.44
2023-03-08T04:17:53.718Z,94728.03
2023-03-08T04:20:24.528Z,94730.22
2023-03-08T04:22:59.570Z,94728.03
2023-03-08T04:25:33.154Z,94733.59
2023-03-08T04:28:02.155Z,94722.06
2023-03-08T04:30:31.550Z,94709.25
2023-03-08T04:33:01.148Z,94705.88
2023-03-08T04:35:36.598Z,94699.38
2023-03-08T04:38:04.844Z,94691.75
2023-03-08T04:40:33.109Z,94691.06
2023-03-08T04:43:04.646Z,94676.47
2023-03-08T04:45:39.460Z,94685.13
2023-03-08T04:48:11.880Z,94682.25
2023-03-08T04:50:40.266Z,94682.25
2023-03-08T04:53:10.168Z,94678.72
2023-03-08T04:55:38.342Z,94672.13
2023-03-08T04:58:09.575Z,94667.06
2023-03-08T05:00:40.282Z,94663.84
2023-03-08T05:03:10.174Z,94671.50
2023-03-08T05:05:38.013Z,94669.06
2023-03-08T05:08:06.188Z,94669.28
2023-03-08T05:10:36.561Z,94660.69
2023-03-08T05:13:06.598Z,94654.97
2023-03-08T05:15:34.349Z,94639.22
2023-03-08T05:18:04.946Z,94647.97
2023-03-08T05:20:32.806Z,94646.38
2023-03-08T05:23:03.128Z,94649.03
2023-03-08T05:25:44.770Z,94647.28
2023-03-08T05:28:15.760Z,94639.47
2023-03-08T05:30:44.777Z,94638.59
2023-03-08T05:33:14.190Z,94639.28
2023-03-08T05:35:42.487Z,94639.28
2023-03-08T05:38:10.595Z,94647.78
2023-03-08T05:40:38.934Z,94640.78
2023-03-08T05:43:07.496Z,94632.47
2023-03-08T05:45:36.902Z,94630.59
2023-03-08T05:48:04.979Z,94623.69
2023-03-08T05:50:39.048Z,94633.38
2023-03-08T05:53:06.856Z,94637.31
2023-03-08T05:55:35.101Z,94637.91
2023-03-08T05:58:02.909Z,94630.78
2023-03-08T06:00:30.722Z,94640.66
2023-03-08T06:03:03.828Z,94623.00
2023-03-08T06:05:33.596Z,94627.44
2023-03-08T06:08:02.871Z,94629.78
2023-03-08T06:10:31.354Z,94633.44
2023-03-08T06:13:01.785Z,94631.75
2023-03-08T06:15:30.042Z,94638.06
2023-03-08T06:17:58.355Z,94639.03
2023-03-08T06:20:27.706Z,94648.50
2023-03-08T06:22:56.382Z,94642.56
2023-03-08T06:25:26.455Z,94636.16
2023-03-08T06:27:54.799Z,94638.22
2023-03-08T06:30:28.974Z,94636.53
2023-03-08T06:32:57.877Z,94640.91
2023-03-08T06:35:25.706Z,94629.66
2023-03-08T06:37:58.286Z,94633.41
2023-03-08T06:40:30.004Z,94637.22
2023-03-08T06:42:58.491Z,94635.28
2023-03-08T06:45:28.155Z,94628.13
2023-03-08T06:47:55.860Z,94641.06
2023-03-08T06:50:24.222Z,94635.09
2023-03-08T06:52:52.033Z,94630.00
2023-03-08T06:55:29.106Z,94613.84
2023-03-08T06:57:56.819Z,94618.47
2023-03-08T07:00:25.803Z,94610.78
2023-03-08T07:02:53.658Z,94612.41
2023-03-08T07:05:21.750Z,94618.69
2023-03-08T07:07:49.695Z,94619.34
2023-03-08T07:10:19.542Z,94620.03
2023-03-08T07:12:51.296Z,94603.22
2023-03-08T07:15:20.975Z,94607.53
2023-03-08T07:17:50.180Z,94606.13
2023-03-08T07:20:19.918Z,94614.34
2023-03-08T07:22:48.159Z,94611.66
2023-03-08T07:25:16.993Z,94608.22
2023-03-08T07:27:44.964Z,94604.28
2023-03-08T07:30:17.497Z,94603.34
2023-03-08T07:32:45.715Z,94591.72
2023-03-08T07:35:15.147Z,94596.13
2023-03-08T07:37:45.880Z,94580.06
2023-03-08T07:40:14.943Z,94583.25
2023-03-08T07:42:42.686Z,94574.88
2023-03-08T07:45:24.513Z,94572.16
2023-03-08T07:47:53.380Z,94559.25
2023-03-08T07:50:21.171Z,94559.84
2023-03-08T07:52:49.624Z,94543.25
2023-03-08T07:55:18.406Z,94537.09
2023-03-08T07:57:46.113Z,94517.19
2023-03-08T10:06:00.817Z,94361.66
2023-03-08T10:08:34.663Z,94364.81
2023-03-08T10:11:07.275Z,94364.91
2023-03-08T10:13:37.338Z,94360.16
2023-03-08T10:16:16.697Z,94349.72
2023-03-08T10:18:49.264Z,94350.66
2023-03-08T10:21:25.017Z,94348.66
2023-03-08T10:23:59.979Z,94352.81
2023-03-08T10:26:29.432Z,94355.03
2023-03-08T10:28:57.245Z,94353.34
2023-03-08T10:31:27.661Z,94356.06
2023-03-08T10:34:03.552Z,94340.66
2023-03-08T10:36:32.865Z,94333.59
2023-03-08T10:39:06.832Z,94331.28
2023-03-08T10:41:42.150Z,94330.81
2023-03-08T10:44:15.558Z,94328.03
2023-03-08T10:46:50.849Z,94330.59
2023-03-08T10:49:20.766Z,94325.56
2023-03-08T10:52:00.644Z,94322.38
2023-03-08T10:54:29.757Z,94318.75
2023-03-08T10:56:59.733Z,94298.63
2023-03-08T10:59:33.192Z,94309.31
2023-03-08T11:02:03.663Z,94300.06
2023-03-08T11:04:32.300Z,94296.09
2023-03-08T11:07:11.526Z,94303.13
2023-03-08T11:09:39.349Z,94293.72
2023-03-08T11:12:07.449Z,94292.22
2023-03-08T11:14:35.571Z,94301.63
2023-03-08T11:17:15.006Z,94304.84
2023-03-08T11:19:59.733Z,94292.59
2023-03-08T11:22:42.346Z,94285.06
2023-03-08T11:25:21.204Z,94282.44
2023-03-08T11:28:14.998Z,94287.72
2023-03-08T11:30:54.099Z,94298.28
2023-03-08T11:33:46.323Z,94288.19
2023-03-08T11:36:21.689Z,94285.13
2023-03-08T11:38:59.756Z,94285.84
2023-03-08T11:41:38.044Z,94275.59
2023-03-08T11:44:32.568Z,94272.91
2023-03-08T11:47:27.292Z,94258.97
2023-03-08T11:50:05.916Z,94261.53
2023-03-08T11:52:44.443Z,94257.00
2023-03-08T11:55:32.837Z,94252.13
2023-03-08T11:58:10.588Z,94262.34
2023-03-08T12:00:42.203Z,94255.13
2023-03-08T12:03:15.556Z,94249.59
2023-03-08T12:05:47.033Z,94244.63
2023-03-08T12:08:18.687Z,94254.41
2023-03-08T12:10:56.400Z,94253.25
2023-03-08T12:13:29.889Z,94258.28
2023-03-08T12:16:03.260Z,94243.47
2023-03-08T12:18:38.768Z,94234.72
2023-03-08T12:21:20.022Z,94247.25
2023-03-08T12:23:57.304Z,94233.59
2023-03-08T12:26:34.231Z,94229.31
2023-03-08T12:29:06.833Z,94235.56
2023-03-08T12:31:38.325Z,94231.84
2023-03-08T12:34:15.558Z,94230.75
2023-03-08T12:36:44.961Z,94228.63
2023-03-08T12:39:27.675Z,94222.66
2023-03-08T12:42:03.011Z,94225.81
2023-03-08T12:44:31.948Z,94229.75
2023-03-08T12:47:04.162Z,94225.75
2023-03-08T12:49:35.317Z,94230.06
2023-03-08T12:52:05.147Z,94230.03
2023-03-08T12:54:35.225Z,94240.84
2023-03-08T12:57:15.807Z,94234.97
2023-03-08T12:59:43.730Z,94232.25
2023-03-08T13:02:28.565Z,94237.66
2023-03-08T13:05:19.094Z,94233.25
2023-03-08T13:08:21.221Z,94252.63
2023-03-08T13:11:01.669Z,94242.38
2023-03-08T13:13:41.515Z,94250.63
2023-03-08T13:16:30.410Z,94231.31
2023-03-08T13:19:08.558Z,94233.19
2023-03-08T13:21:41.563Z,94234.59
2023-03-08T13:24:18.302Z,94232.25
2023-03-08T13:27:14.967Z,94231.63
2023-03-08T13:29:45.933Z,94233.88
2023-03-08T13:32:17.602Z,94224.75
2023-03-08T13:34:47.054Z,94237.56
2023-03-08T13:37:22.790Z,94217.47
2023-03-08T13:39:54.937Z,94228.63
2023-03-08T13:42:24.803Z,94240.41
2023-03-08T13:44:54.312Z,94216.56
2023-03-08T13:47:25.501Z,94234.69
2023-03-08T13:49:55.758Z,94248.94
2023-03-08T13:52:29.287Z,94245.44
2023-03-08T13:55:00.202Z,94243.13
2023-03-08T13:57:30.126Z,94234.31
2023-03-08T14:00:00.960Z,94235.25
2023-03-08T14:02:30.714Z,94243.16
2023-03-08T14:04:59.672Z,94213.00
2023-03-08T14:07:29.713Z,94229.84
2023-03-08T14:09:57.835Z,94244.22
2023-03-08T14:12:28.667Z,94228.28
2023-03-08T14:15:01.054Z,94221.31
2023-03-08T14:17:31.694Z,94224.50
2023-03-08T14:20:02.004Z,94205.19
2023-03-08T14:22:39.559Z,94206.84
2023-03-08T14:25:21.494Z,94206.13
2023-03-08T14:27:49.415Z,94204.59
2023-03-08T14:30:21.605Z,94201.47
2023-03-08T14:33:01.985Z,94197.59
2023-03-08T14:35:31.750Z,94210.81
2023-03-08T14:37:59.675Z,94198.06
2023-03-08T14:40:30.786Z,94199.19
2023-03-08T14:43:02.143Z,94194.97
2023-03-08T14:45:35.225Z,94192.66
2023-03-08T14:48:15.762Z,94183.75
2023-03-08T14:50:54.552Z,94185.25
2023-03-08T14:53:33.529Z,94191.53
2023-03-08T14:56:03.567Z,94190.75
2023-03-08T14:58:33.309Z,94175.63
2023-03-08T15:01:04.077Z,94177.56
2023-03-08T15:03:33.375Z,94167.09
2023-03-08T15:06:07.752Z,94174.06
2023-03-08T15:08:35.607Z,94176.00
2023-03-08T15:11:03.369Z,94172.53
2023-03-08T15:13:31.084Z,94162.00
2023-03-08T15:15:58.865Z,94167.84
2023-03-08T15:18:28.196Z,94150.34
2023-03-08T15:20:55.989Z,94137.94
2023-03-08T15:23:26.358Z,94144.88
2023-03-08T15:25:54.498Z,94141.69
2023-03-08T15:28:23.637Z,94142.44
2023-03-08T15:30:54.501Z,94138.53
2023-03-08T15:33:23.216Z,94130.78
2023-03-08T15:35:53.066Z,94125.03
2023-03-08T15:38:21.505Z,94111.47
2023-03-08T15:40:49.623Z,94123.91
2023-03-08T15:43:17.529Z,94120.47
2023-03-08T15:45:45.294Z,94116.53
2023-03-08T15:48:14.637Z,94128.56
2023-03-08T15:50:43.838Z,94119.66
2023-03-08T15:53:20.600Z,94119.25
2023-03-08T15:55:57.563Z,94120.75
2023-03-08T15:58:25.352Z,94119.94
2023-03-08T16:00:53.251Z,94118.31
2023-03-08T16:03:25.908Z,94118.31
2023-03-08T16:05:56.657Z,94114.78
2023-03-08T16:08:28.469Z,94116.72
2023-03-08T16:11:00.210Z,94104.25
2023-03-08T16:13:27.935Z,94098.13
2023-03-08T16:15:59.099Z,94098.84
2023-03-08T16:18:26.941Z,94084.44
2023-03-08T16:20:54.660Z,94091.78
2023-03-08T16:23:23.006Z,94088.28
2023-03-08T16:26:14.205Z,94095.59
2023-03-08T16:28:44.591Z,94090.88
2023-03-08T16:31:17.290Z,94107.09
2023-03-08T16:33:45.105Z,94104.00
2023-03-08T16:36:13.333Z,94097.06
2023-03-08T16:38:41.675Z,94091.28
2023-03-08T16:41:13.235Z,94079.56
2023-03-08T16:43:49.816Z,94095.81
2023-03-08T16:46:20.575Z,94104.69
2023-03-08T16:48:49.888Z,94104.63
2023-03-08T16:51:19.664Z,94089.19
2023-03-08T16:53:47.677Z,94084.88
2023-03-08T16:56:20.229Z,94101.56
2023-03-08T16:58:48.446Z,94099.16
2023-03-08T17:01:18.012Z,94110.78
2023-03-08T17:03:46.055Z,94098.41
2023-03-08T17:06:17.064Z,94101.53
2023-03-08T17:08:44.939Z,94111.94
2023-03-08T17:11:16.528Z,94113.53
2023-03-08T17:13:50.786Z,94118.19
2023-03-08T17:16:19.172Z,94124.44
2023-03-08T17:18:47.330Z,94129.41
2023-03-08T17:21:15.100Z,94147.09
2023-03-08T17:23:43.044Z,94124.69
2023-03-08T17:26:12.979Z,94132.47
2023-03-08T17:28:41.705Z,94151.00
2023-03-08T17:31:12.863Z,94155.16
2023-03-08T17:33:41.052Z,94151.16
2023-03-08T17:36:10.672Z,94153.09
2023-03-08T17:38:38.721Z,94166.81
2023-03-08T17:41:08.043Z,94160.13
2023-03-08T17:43:36.308Z,94153.94
2023-03-08T17:46:05.964Z,94151.47
2023-03-08T17:48:35.719Z,94151.41
2023-03-08T17:51:04.019Z,94152.41
2023-03-08T17:53:31.872Z,94163.59
2023-03-08T17:56:00.210Z,94152.66
2023-03-08T17:58:28.261Z,94165.31
2023-03-08T18:00:56.271Z,94173.84
2023-03-08T18:03:24.265Z,94167.72
2023-03-08T18:05:54.419Z,94173.75
2023-03-08T18:08:22.165Z,94178.72
2023-03-08T18:10:50.056Z,94178.00
2023-03-08T18:13:17.805Z,94182.59
2023-03-08T18:15:45.607Z,94186.13
2023-03-08T18:18:13.395Z,94179.16
2023-03-08T18:20:41.386Z,94170.63
2023-03-08T18:23:10.541Z,94165.22
2023-03-08T18:25:39.182Z,94173.56
2023-03-08T18:28:07.050Z,94187.94
2023-03-08T18:30:34.839Z,94166.22
2023-03-08T18:33:02.772Z,94186.28
2023-03-08T18:35:30.630Z,94184.13
2023-03-08T18:37:58.366Z,94183.03
2023-03-08T18:40:29.320Z,94184.25
2023-03-08T18:42:57.219Z,94176.47
2023-03-08T18:45:25.141Z,94190.38
2023-03-08T18:47:53.541Z,94176.97
2023-03-08T18:50:21.752Z,94191.31
2023-03-08T18:52:49.485Z,94185.78
2023-03-08T18:55:17.487Z,94182.31
2023-03-08T18:57:46.612Z,94185.78
2023-03-08T19:00:15.552Z,94176.47
2023-03-08T19:02:43.277Z,94177.59
2023-03-08T19:05:11.666Z,94170.94
2023-03-08T19:07:40.943Z,94169.38
2023-03-08T19:10:14.602Z,94148.91
2023-03-08T19:12:43.644Z,94165.06
2023-03-08T19:15:13.395Z,94165.84
2023-03-08T19:17:41.131Z,94165.44
2023-03-08T19:20:10.810Z,94174.47
2023-03-08T19:22:39.630Z,94176.06
2023-03-08T19:25:08.206Z,94170.72
2023-03-08T19:27:35.943Z,94192.34
2023-03-08T19:30:04.130Z,94186.53
2023-03-08T19:32:33.273Z,94176.44
2023-03-08T19:35:01.701Z,94182.50
2023-03-08T19:37:29.589Z,94169.88
2023-03-08T19:39:57.365Z,94190.97
2023-03-08T19:42:25.185Z,94188.31
2023-03-08T19:44:52.965Z,94194.03
2023-03-08T19:47:21.063Z,94219.53
2023-03-08T19:49:50.591Z,94177.75
2023-03-08T19:52:18.499Z,94184.63
2023-03-08T19:54:46.427Z,94164.09
2023-03-08T19:57:14.208Z,94160.16
2023-03-08T19:59:41.915Z,94173.53
2023-03-08T20:02:12.940Z,94166.28
2023-03-08T20:04:44.828Z,94166.34
2023-03-08T20:07:13.942Z,94164.00
2023-03-08T20:09:43.935Z,94165.97
2023-03-08T20:12:11.671Z,94158.72
2023-03-08T20:14:39.418Z,94138.13
2023-03-08T20:17:07.241Z,94154.47
2023-03-08T20:19:35.699Z,94155.59
2023-03-08T20:22:04.566Z,94155.41
2023-03-08T20:24:33.641Z,94156.25
2023-03-08T20:27:01.348Z,94159.66
2023-03-08T20:29:29.096Z,94159.38
2023-03-08T20:31:58.220Z,94165.59
2023-03-08T20:34:27.038Z,94161.91
2023-03-08T20:36:54.857Z,94152.28
2023-03-08T20:39:22.646Z,94152.69
2023-03-08T20:41:51.780Z,94160.47
2023-03-08T20:44:19.462Z,94146.91
2023-03-08T20:46:47.136Z,94145.56
2023-03-08T20:49:16.655Z,94144.75
2023-03-08T20:51:44.941Z,94138.31
2023-03-08T20:54:13.332Z,94160.03
2023-03-08T20:56:41.156Z,94152.53
2023-03-08T20:59:11.773Z,94147.88
2023-03-08T21:01:41.898Z,94167.59
2023-03-08T21:04:09.623Z,94136.28
2023-03-08T21:06:37.573Z,94164.25
2023-03-08T21:09:05.464Z,94161.97
2023-03-08T21:11:33.537Z,94156.88
2023-03-08T21:14:01.298Z,94159.22
2023-03-08T21:16:31.347Z,94160.66
2023-03-08T21:19:02.272Z,94139.06
2023-03-08T21:21:34.094Z,94142.53
2023-03-08T21:24:04.437Z,94140.19
2023-03-08T21:26:32.714Z,94135.88
2023-03-08T21:29:02.637Z,94138.84
2023-03-08T21:31:32.891Z,94148.25
2023-03-08T21:34:03.072Z,94135.81
2023-03-08T21:36:31.292Z,94133.16
2023-03-08T21:39:00.306Z,94142.84
2023-03-08T21:41:29.769Z,94137.38
2023-03-08T21:43:59.955Z,94131.97
2023-03-08T21:46:28.015Z,94120.44
2023-03-08T21:48:57.762Z,94117.03
2023-03-08T21:51:26.075Z,94098.72
2023-03-08T21:53:53.828Z,94106.66
2023-03-08T21:56:21.637Z,94115.03
2023-03-08T21:58:49.339Z,94118.47
2023-03-08T22:01:20.314Z,94119.56
2023-03-08T22:03:48.288Z,94110.34
2023-03-08T22:06:17.522Z,94115.03
2023-03-08T22:08:45.364Z,94111.06
2023-03-08T22:11:13.148Z,94122.25
2023-03-08T22:13:40.998Z,94110.00
2023-03-08T22:16:10.510Z,94117.31
2023-03-08T22:18:38.308Z,94116.66
2023-03-08T22:21:06.537Z,94112.81
2023-03-08T22:23:35.665Z,94109.34
2023-03-08T22:26:06.765Z,94107.06
2023-03-08T22:28:34.410Z,94090.47
2023-03-08T22:31:02.179Z,94094.31
2023-03-08T22:33:31.145Z,94090.91
2023-03-08T22:35:58.911Z,94097.34
2023-03-08T22:38:26.747Z,94099.66
2023-03-08T22:40:55.861Z,94100.81
2023-03-08T22:43:23.761Z,94093.66
2023-03-08T22:45:51.612Z,94086.78
2023-03-08T22:48:19.326Z,94085.94
2023-03-08T22:50:47.101Z,94083.66
2023-03-08T22:53:14.832Z,94085.25
2023-03-08T22:55:47.867Z,94066.81
2023-03-08T22:58:16.981Z,94071.91
2023-03-08T23:00:44.824Z,94065.22
2023-03-08T23:03:12.637Z,94060.66
2023-03-08T23:05:40.449Z,94073.06
2023-03-08T23:08:08.287Z,94077.03
2023-03-08T23:10:37.325Z,94071.72
2023-03-08T23:13:05.473Z,94064.72
2023-03-08T23:15:34.635Z,94081.00
2023-03-08T23:18:02.708Z,94080.94
2023-03-08T23:20:30.633Z,94073.63
2023-03-08T23:22:58.440Z,94082.44
2023-03-08T23:25:26.207Z,94082.13
2023-03-08T23:27:54.810Z,94082.53
2023-03-08T23:30:23.038Z,94089.16
2023-03-08T23:32:52.229Z,94095.81
2023-03-08T23:35:20.210Z,94102.91
2023-03-08T23:37:47.901Z,94095.66
2023-03-08T23:40:16.449Z,94075.63
2023-03-08T23:42:44.163Z,94089.53
2023-03-08T23:45:12.389Z,94085.22
2023-03-08T23:47:40.108Z,94077.84
2023-03-08T23:50:10.693Z,94070.44
2023-03-08T23:52:38.460Z,94076.56
2023-03-08T23:55:07.151Z,94081.22
2023-03-08T23:57:34.961Z,94063.88
